createdAt,value
2023-04-09T00:01:04.569Z,0.90
2023-04-09T00:03:18.859Z,1.00
2023-04-09T00:05:31.801Z,0.80
2023-04-09T00:07:44.802Z,0.70
2023-04-09T00:09:58.968Z,0.80
2023-04-09T00:12:11.810Z,0.70
2023-04-09T00:14:25.303Z,0.80
2023-04-09T00:16:38.369Z,1.40
2023-04-09T00:18:51.242Z,0.70
2023-04-09T00:21:03.957Z,0.70
2023-04-09T00:23:16.601Z,1.10
2023-04-09T00:25:29.810Z,0.80
2023-04-09T00:27:42.804Z,0.90
2023-04-09T00:29:56.745Z,0.70
2023-04-09T00:32:09.618Z,0.80
2023-04-09T00:34:22.376Z,0.90
2023-04-09T00:36:34.636Z,0.80
2023-04-09T00:38:47.606Z,0.90
2023-04-09T00:41:00.890Z,0.90
2023-04-09T00:43:13.573Z,1.20
2023-04-09T00:45:26.288Z,1.10
2023-04-09T00:47:40.506Z,1.10
2023-04-09T00:49:53.756Z,1.10
2023-04-09T00:52:07.291Z,1.10
2023-04-09T00:54:20.204Z,0.90
2023-04-09T00:56:33.287Z,1.10
2023-04-09T00:58:46.251Z,0.80
2023-04-09T01:00:58.990Z,0.80
2023-04-09T01:03:12.217Z,1.00
2023-04-09T01:05:25.834Z,0.90
2023-04-09T01:07:56.140Z,0.90
2023-04-09T01:10:20.836Z,0.80
2023-04-09T01:12:42.150Z,0.90
2023-04-09T01:15:02.922Z,1.30
2023-04-09T01:17:20.315Z,0.90
2023-04-09T01:19:46.410Z,1.10
2023-04-09T01:22:02.667Z,1.30
2023-04-09T01:24:39.614Z,0.90
2023-04-09T01:27:02.734Z,1.00
2023-04-09T01:29:26.669Z,1.10
2023-04-09T01:31:44.326Z,1.00
2023-04-09T01:33:58.516Z,0.90
2023-04-09T01:36:13.824Z,1.10
2023-04-09T01:38:27.233Z,1.20
2023-04-09T01:40:40.212Z,0.70
2023-04-09T01:42:54.891Z,1.20
2023-04-09T01:45:09.187Z,1.10
2023-04-09T01:47:22.648Z,0.90
2023-04-09T01:49:36.283Z,1.40
2023-04-09T01:51:50.829Z,1.30
2023-04-09T01:54:03.784Z,1.00
2023-04-09T01:56:16.632Z,1.10
2023-04-09T01:58:29.568Z,0.80
2023-04-09T02:00:48.830Z,1.30
2023-04-09T02:03:10.169Z,1.10
2023-04-09T02:05:28.260Z,1.10
2023-04-09T02:07:47.293Z,1.40
2023-04-09T02:10:02.226Z,1.10
2023-04-09T02:12:17.931Z,1.20
2023-04-09T02:14:31.736Z,1.10
2023-04-09T02:16:44.646Z,1.00
2023-04-09T02:19:02.282Z,1.20
2023-04-09T02:21:15.690Z,1.20
2023-04-09T02:23:30.029Z,1.30
2023-04-09T02:25:42.698Z,1.10
2023-04-09T02:27:55.620Z,1.30
2023-04-09T02:30:08.921Z,1.10
2023-04-09T02:32:21.821Z,1.30
2023-04-09T02:34:34.825Z,1.20
2023-04-09T02:36:48.562Z,1.30
2023-04-09T02:39:01.584Z,1.50
2023-04-09T02:41:14.975Z,1.50
2023-04-09T02:43:27.806Z,1.20
2023-04-09T02:45:41.197Z,1.40
2023-04-09T02:47:54.430Z,1.70
2023-04-09T02:50:07.783Z,1.50
2023-04-09T02:52:21.299Z,1.60
2023-04-09T02:54:35.130Z,1.40
2023-04-09T02:56:47.779Z,1.50
2023-04-09T02:59:00.427Z,1.10
2023-04-09T03:01:13.178Z,1.70
2023-04-09T03:03:26.619Z,1.30
2023-04-09T03:05:40.020Z,1.50
2023-04-09T03:07:53.291Z,1.10
2023-04-09T03:10:05.864Z,1.20
2023-04-09T03:12:18.872Z,1.60
2023-04-09T03:14:32.877Z,1.50
2023-04-09T03:16:47.831Z,1.00
2023-04-09T03:19:01.150Z,1.50
2023-04-09T03:21:16.685Z,1.30
2023-04-09T03:23:36.062Z,1.40
2023-04-09T03:25:49.906Z,1.60
2023-04-09T03:28:04.265Z,1.50
2023-04-09T03:30:23.394Z,1.70
2023-04-09T03:32:36.030Z,1.50
2023-04-09T03:34:49.761Z,1.90
2023-04-09T03:37:04.781Z,1.20
2023-04-09T03:39:17.725Z,2.00
2023-04-09T03:41:31.770Z,2.10
2023-04-09T03:43:47.334Z,1.70
2023-04-09T03:46:00.672Z,2.50
2023-04-09T03:48:14.733Z,3.00
2023-04-09T03:50:27.677Z,3.10
2023-04-09T03:52:41.299Z,3.40
2023-04-09T03:54:54.200Z,3.80
2023-04-09T03:57:08.550Z,3.60
2023-04-09T03:59:24.269Z,3.10
2023-04-09T04:01:37.914Z,3.00
2023-04-09T04:03:50.986Z,3.00
2023-04-09T04:06:23.598Z,3.10
2023-04-09T04:08:58.923Z,3.50
2023-04-09T04:11:18.983Z,3.40
2023-04-09T04:13:32.440Z,3.50
2023-04-09T04:15:47.883Z,2.90
2023-04-09T04:18:01.635Z,3.30
2023-04-09T04:20:23.225Z,3.50
2023-04-09T04:22:42.544Z,3.50
2023-04-09T04:24:55.122Z,3.00
2023-04-09T04:27:09.868Z,3.10
2023-04-09T04:29:22.597Z,3.50
2023-04-09T04:31:46.630Z,2.50
2023-04-09T04:34:00.332Z,3.60
2023-04-09T04:36:16.648Z,3.20
2023-04-09T04:38:37.387Z,2.60
2023-04-09T04:40:53.531Z,3.10
2023-04-09T04:43:06.939Z,2.40
2023-04-09T04:45:21.354Z,2.80
2023-04-09T04:47:38.530Z,2.60
2023-04-09T04:49:51.889Z,2.00
2023-04-09T04:52:06.389Z,2.10
2023-04-09T04:54:19.235Z,2.00
2023-04-09T04:56:35.740Z,2.20
2023-04-09T04:58:54.666Z,2.10
2023-04-09T05:01:07.742Z,2.20
2023-04-09T05:03:20.979Z,2.20
2023-04-09T05:05:48.534Z,2.40
2023-04-09T05:08:02.438Z,2.20
2023-04-09T05:10:16.204Z,2.00
2023-04-09T05:12:34.348Z,2.30
2023-04-09T05:14:47.870Z,2.00
2023-04-09T05:17:00.769Z,2.00
2023-04-09T05:19:18.811Z,2.10
2023-04-09T05:21:32.773Z,2.30
2023-04-09T05:23:46.028Z,2.40
2023-04-09T05:25:58.678Z,2.20
2023-04-09T05:28:22.361Z,1.90
2023-04-09T05:30:39.375Z,2.40
2023-04-09T05:32:52.362Z,1.80
2023-04-09T05:35:06.983Z,1.60
2023-04-09T05:37:24.617Z,1.80
2023-04-09T05:39:38.183Z,2.10
2023-04-09T05:41:51.492Z,2.10
2023-04-09T05:44:15.083Z,2.30
2023-04-09T05:46:30.249Z,2.00
2023-04-09T05:48:43.270Z,2.10
2023-04-09T05:51:01.026Z,1.80
2023-04-09T05:53:14.264Z,2.10
2023-04-09T05:55:28.332Z,1.80
2023-04-09T05:57:46.477Z,1.80
2023-04-09T05:59:59.827Z,1.70
2023-04-09T06:02:13.536Z,1.70
2023-04-09T06:04:27.222Z,1.80
2023-04-09T06:06:40.497Z,1.80
2023-04-09T06:08:53.361Z,1.50
2023-04-09T06:11:09.005Z,2.10
2023-04-09T06:13:22.331Z,1.70
2023-04-09T06:15:36.486Z,1.70
2023-04-09T06:17:49.667Z,1.50
2023-04-09T06:20:02.390Z,2.10
2023-04-09T06:22:15.471Z,1.60
2023-04-09T06:24:28.655Z,1.90
2023-04-09T06:26:41.745Z,1.50
2023-04-09T06:28:54.873Z,1.70
2023-04-09T06:31:07.656Z,1.50
2023-04-09T06:33:20.801Z,1.80
2023-04-09T06:35:33.583Z,2.10
2023-04-09T06:37:46.228Z,1.60
2023-04-09T06:40:01.419Z,1.60
2023-04-09T06:42:14.386Z,1.70
2023-04-09T06:44:36.485Z,1.80
2023-04-09T06:46:49.542Z,1.90
2023-04-09T06:49:02.213Z,1.60
2023-04-09T06:51:15.999Z,1.60
2023-04-09T06:53:28.691Z,1.60
2023-04-09T06:55:41.265Z,1.70
2023-04-09T06:57:54.872Z,1.70
2023-04-09T07:00:08.018Z,1.80
2023-04-09T07:02:21.756Z,1.60
2023-04-09T07:04:34.493Z,1.80
2023-04-09T07:06:47.410Z,1.30
2023-04-09T07:09:00.223Z,1.80
2023-04-09T07:11:13.291Z,1.80
2023-04-09T07:13:26.017Z,1.80
2023-04-09T07:15:40.577Z,1.30
2023-04-09T07:17:54.510Z,1.40
2023-04-09T07:20:07.997Z,1.60
2023-04-09T07:22:20.730Z,1.70
2023-04-09T07:24:33.824Z,1.70
2023-04-09T07:26:46.480Z,1.70
2023-04-09T07:29:00.007Z,1.70
2023-04-09T07:31:12.639Z,1.80
2023-04-09T07:33:25.390Z,1.60
2023-04-09T07:35:38.079Z,1.70
2023-04-09T07:37:50.773Z,1.50
2023-04-09T07:40:05.036Z,1.70
2023-04-09T07:42:18.448Z,1.70
2023-04-09T07:44:30.969Z,1.60
2023-04-09T07:46:43.709Z,1.20
2023-04-09T07:48:56.251Z,1.90
2023-04-09T07:51:08.875Z,1.40
2023-04-09T07:53:21.444Z,1.90
2023-04-09T07:55:34.295Z,1.70
2023-04-09T07:57:47.011Z,1.60
2023-04-09T08:00:01.043Z,1.80
2023-04-09T08:02:15.439Z,1.70
2023-04-09T08:04:29.309Z,1.50
2023-04-09T08:06:42.179Z,1.50
2023-04-09T08:08:54.993Z,1.40
2023-04-09T08:11:08.276Z,1.80
2023-04-09T08:13:21.304Z,1.60
2023-04-09T08:15:33.817Z,3.10
2023-04-09T08:17:46.780Z,2.00
2023-04-09T08:19:59.540Z,2.10
2023-04-09T08:22:12.740Z,1.40
2023-04-09T08:24:25.371Z,1.70
2023-04-09T08:26:38.567Z,1.70
2023-04-09T08:28:53.360Z,1.70
2023-04-09T08:31:06.725Z,2.20
2023-04-09T08:33:20.071Z,1.90
2023-04-09T08:35:33.695Z,1.80
2023-04-09T08:37:47.105Z,1.30
2023-04-09T08:39:59.875Z,2.00
2023-04-09T08:42:13.683Z,1.40
2023-04-09T08:44:29.188Z,1.90
2023-04-09T08:46:41.894Z,2.00
2023-04-09T08:48:56.443Z,1.40
2023-04-09T08:51:09.269Z,1.50
2023-04-09T08:53:25.151Z,1.60
2023-04-09T08:55:38.572Z,1.60
2023-04-09T08:57:51.293Z,2.00
2023-04-09T09:00:04.595Z,1.70
2023-04-09T09:02:17.879Z,1.50
2023-04-09T09:04:46.762Z,1.70
2023-04-09T09:07:09.726Z,1.30
2023-04-09T09:09:22.848Z,1.60
2023-04-09T09:11:35.911Z,1.60
2023-04-09T09:13:49.248Z,1.30
2023-04-09T09:16:17.862Z,1.10
2023-04-09T09:18:44.918Z,1.60
2023-04-09T09:21:12.895Z,1.20
2023-04-09T09:23:40.733Z,1.50
2023-04-09T09:25:53.639Z,1.40
2023-04-09T09:28:13.812Z,1.30
2023-04-09T09:30:33.587Z,1.00
2023-04-09T09:32:46.751Z,1.80
2023-04-09T09:35:08.111Z,1.50
2023-04-09T09:37:34.159Z,1.50
2023-04-09T09:39:50.993Z,1.30
2023-04-09T09:42:14.747Z,1.60
2023-04-09T09:44:39.060Z,1.40
2023-04-09T09:46:51.757Z,1.50
2023-04-09T09:49:04.663Z,1.30
2023-04-09T09:51:18.623Z,1.50
2023-04-09T09:53:33.074Z,1.60
2023-04-09T09:55:51.328Z,1.30
2023-04-09T09:58:06.658Z,1.50
2023-04-09T10:00:23.931Z,1.60
2023-04-09T10:02:43.961Z,1.40
2023-04-09T10:04:57.407Z,1.70
2023-04-09T10:07:11.099Z,1.70
2023-04-09T10:09:24.601Z,1.80
2023-04-09T10:11:39.656Z,1.70
2023-04-09T10:13:57.136Z,1.70
2023-04-09T10:16:12.356Z,1.40
2023-04-09T10:18:24.888Z,1.40
2023-04-09T10:20:44.915Z,1.50
2023-04-09T10:22:59.791Z,1.60
2023-04-09T10:25:14.271Z,1.60
2023-04-09T10:27:27.253Z,1.40
2023-04-09T10:29:46.219Z,1.90
2023-04-09T10:32:10.654Z,1.50
2023-04-09T10:34:24.582Z,1.70
2023-04-09T10:36:37.947Z,1.90
2023-04-09T10:38:52.210Z,1.60
2023-04-09T10:41:09.713Z,1.30
2023-04-09T10:43:25.352Z,1.70
2023-04-09T10:45:49.447Z,1.50
2023-04-09T10:48:06.445Z,1.60
2023-04-09T10:50:29.041Z,1.60
2023-04-09T10:52:43.395Z,1.80
2023-04-09T10:54:57.019Z,1.60
2023-04-09T10:57:20.887Z,1.50
2023-04-09T10:59:33.807Z,1.80
2023-04-09T11:01:55.309Z,1.70
2023-04-09T11:04:20.629Z,1.70
2023-04-09T11:06:34.711Z,1.70
2023-04-09T11:08:50.555Z,1.60
2023-04-09T11:11:04.056Z,1.60
2023-04-09T11:13:21.073Z,1.20
2023-04-09T11:15:34.719Z,1.70
2023-04-09T11:17:47.746Z,1.80
2023-04-09T11:20:01.032Z,1.70
2023-04-09T11:22:13.774Z,1.80
2023-04-09T11:24:26.883Z,1.50
2023-04-09T11:26:42.986Z,1.50
2023-04-09T11:28:58.964Z,1.30
2023-04-09T11:31:13.218Z,1.60
2023-04-09T11:33:25.721Z,1.70
2023-04-09T11:35:40.226Z,1.40
2023-04-09T11:37:55.685Z,1.40
2023-04-09T11:40:09.160Z,1.60
2023-04-09T11:42:23.045Z,2.20
2023-04-09T11:44:35.456Z,1.70
2023-04-09T11:46:48.870Z,1.70
2023-04-09T11:49:02.390Z,1.80
2023-04-09T11:51:15.588Z,1.60
2023-04-09T11:53:33.342Z,1.60
2023-04-09T11:55:46.209Z,1.70
2023-04-09T11:58:01.879Z,1.70
2023-04-09T12:00:17.860Z,1.60
2023-04-09T12:02:33.217Z,1.70
2023-04-09T12:04:55.507Z,2.20
2023-04-09T12:07:12.141Z,1.60
2023-04-09T12:09:24.887Z,1.70
2023-04-09T12:11:40.184Z,1.80
2023-04-09T12:14:02.361Z,1.90
2023-04-09T12:16:15.257Z,2.10
2023-04-09T12:18:28.004Z,2.00
2023-04-09T12:20:42.393Z,2.10
2023-04-09T12:22:55.040Z,2.50
2023-04-09T12:25:08.295Z,1.70
2023-04-09T12:27:20.887Z,2.00
2023-04-09T12:29:34.644Z,1.50
2023-04-09T12:31:47.697Z,1.90
2023-04-09T12:34:00.361Z,2.00
2023-04-09T12:36:14.027Z,2.60
2023-04-09T12:38:27.804Z,1.70
2023-04-09T12:40:41.290Z,1.70
2023-04-09T12:42:54.967Z,1.90
2023-04-09T12:45:07.901Z,2.00
2023-04-09T12:47:21.032Z,1.70
2023-04-09T12:49:34.138Z,1.90
2023-04-09T12:51:48.763Z,1.70
2023-04-09T12:54:01.972Z,1.70
2023-04-09T12:56:15.169Z,2.10
2023-04-09T12:58:27.925Z,2.10
2023-04-09T13:00:40.928Z,1.90
2023-04-09T13:02:54.015Z,2.00
2023-04-09T13:05:07.533Z,2.20
2023-04-09T13:07:20.497Z,1.70
2023-04-09T13:09:33.043Z,2.10
2023-04-09T13:11:45.686Z,2.00
2023-04-09T13:13:58.858Z,2.00
2023-04-09T13:16:12.280Z,1.70
2023-04-09T13:18:25.002Z,2.10
2023-04-09T13:20:37.715Z,2.00
2023-04-09T13:22:50.400Z,2.00
2023-04-09T13:25:03.050Z,2.30
2023-04-09T13:27:15.694Z,2.10
2023-04-09T13:29:30.382Z,2.30
2023-04-09T13:31:43.483Z,2.30
2023-04-09T13:33:56.372Z,2.20
2023-04-09T13:36:09.411Z,2.30
2023-04-09T13:38:22.180Z,2.40
2023-04-09T13:40:34.860Z,2.10
2023-04-09T13:42:47.717Z,1.80
2023-04-09T13:45:00.874Z,2.10
2023-04-09T13:47:14.702Z,1.70
2023-04-09T13:49:28.436Z,2.20
2023-04-09T13:51:40.918Z,2.00
2023-04-09T13:53:53.638Z,1.80
2023-04-09T13:56:06.552Z,2.10
2023-04-09T13:58:19.211Z,1.80
2023-04-09T14:00:32.092Z,2.60
2023-04-09T14:02:45.022Z,2.10
2023-04-09T14:04:58.061Z,2.40
2023-04-09T14:07:11.463Z,1.70
2023-04-09T14:09:24.514Z,1.80
2023-04-09T14:11:37.213Z,2.00
2023-04-09T14:13:49.791Z,1.80
2023-04-09T14:16:02.894Z,1.80
2023-04-09T14:18:15.446Z,2.10
2023-04-09T14:20:28.352Z,1.70
2023-04-09T14:22:42.598Z,1.90
2023-04-09T14:24:55.389Z,1.90
2023-04-09T14:27:07.913Z,1.60
2023-04-09T14:29:20.529Z,2.10
2023-04-09T14:31:34.697Z,2.00
2023-04-09T14:33:47.416Z,2.10
2023-04-09T14:36:00.429Z,1.80
2023-04-09T14:38:13.154Z,1.50
2023-04-09T14:40:26.348Z,1.80
2023-04-09T14:42:39.797Z,1.80
2023-04-09T14:44:52.660Z,1.80
2023-04-09T14:47:05.812Z,1.70
2023-04-09T14:49:18.569Z,1.80
2023-04-09T14:51:31.543Z,1.60
2023-04-09T14:53:44.293Z,1.90
2023-04-09T14:55:57.377Z,1.50
2023-04-09T14:58:10.008Z,1.60
2023-04-09T15:00:22.985Z,1.70
2023-04-09T15:02:36.405Z,2.20
2023-04-09T15:04:50.114Z,1.70
2023-04-09T15:07:02.991Z,1.50
2023-04-09T15:09:15.825Z,1.50
2023-04-09T15:11:29.030Z,1.40
2023-04-09T15:13:41.769Z,2.10
2023-04-09T15:15:54.880Z,1.40
2023-04-09T15:18:08.281Z,1.60
2023-04-09T15:20:21.005Z,1.40
2023-04-09T15:22:33.743Z,1.60
2023-04-09T15:24:46.438Z,1.60
2023-04-09T15:26:59.805Z,1.50
2023-04-09T15:29:13.990Z,1.60
2023-04-09T15:31:27.109Z,1.60
2023-04-09T15:33:40.115Z,1.60
2023-04-09T15:35:52.823Z,1.40
2023-04-09T15:38:05.750Z,1.50
2023-04-09T15:40:19.672Z,1.40
2023-04-09T15:42:32.504Z,1.50
2023-04-09T15:44:45.239Z,2.00
2023-04-09T15:46:58.864Z,1.90
2023-04-09T15:49:13.123Z,1.20
2023-04-09T15:51:26.336Z,1.60
2023-04-09T15:53:38.961Z,1.50
2023-04-09T15:55:51.759Z,1.40
2023-04-09T15:58:04.689Z,1.50
2023-04-09T16:00:18.309Z,1.50
2023-04-09T16:02:30.912Z,1.90
2023-04-09T16:04:43.960Z,2.00
2023-04-09T16:06:57.542Z,2.30
2023-04-09T16:09:10.512Z,1.50
2023-04-09T16:11:23.492Z,1.80
2023-04-09T16:13:36.610Z,1.40
2023-04-09T16:15:50.580Z,1.10
2023-04-09T16:18:03.409Z,1.70
2023-04-09T16:20:17.439Z,1.50
2023-04-09T16:22:30.043Z,1.20
2023-04-09T16:24:43.051Z,1.10
2023-04-09T16:26:55.560Z,1.30
2023-04-09T16:29:08.223Z,1.60
2023-04-09T16:31:21.686Z,1.90
2023-04-09T16:33:35.177Z,1.50
2023-04-09T16:35:48.289Z,1.10
2023-04-09T16:38:01.162Z,1.60
2023-04-09T16:40:15.765Z,1.80
2023-04-09T16:42:31.381Z,1.60
2023-04-09T16:44:44.531Z,1.90
2023-04-09T16:46:57.548Z,1.40
2023-04-09T16:49:10.653Z,1.40
2023-04-09T16:51:25.177Z,1.70
2023-04-09T16:53:39.024Z,1.30
2023-04-09T16:55:51.965Z,1.60
2023-04-09T16:58:06.074Z,1.50
2023-04-09T17:00:21.913Z,1.50
2023-04-09T17:02:35.196Z,1.70
2023-04-09T17:04:48.472Z,1.70
2023-04-09T17:07:01.586Z,1.70
2023-04-09T17:09:14.177Z,1.70
2023-04-09T17:11:26.903Z,1.60
2023-04-09T17:13:40.078Z,1.80
2023-04-09T17:15:52.523Z,1.50
2023-04-09T17:18:05.315Z,1.40
2023-04-09T17:20:19.644Z,1.30
2023-04-09T17:22:33.143Z,1.30
2023-04-09T17:24:46.016Z,1.30
2023-04-09T17:26:59.706Z,1.50
2023-04-09T17:29:12.778Z,1.60
2023-04-09T17:31:26.086Z,1.90
2023-04-09T17:33:40.233Z,1.90
2023-04-09T17:35:53.953Z,1.90
2023-04-09T17:38:06.625Z,1.70
2023-04-09T17:40:21.656Z,2.00
2023-04-09T17:42:34.811Z,1.80
2023-04-09T17:44:48.753Z,1.80
2023-04-09T17:47:01.882Z,1.80
2023-04-09T17:49:14.405Z,1.30
2023-04-09T17:51:28.209Z,1.60
2023-04-09T17:53:41.532Z,1.80
2023-04-09T17:55:54.825Z,2.00
2023-04-09T17:58:07.931Z,1.50
2023-04-09T18:00:21.352Z,1.60
2023-04-09T18:02:35.933Z,1.70
2023-04-09T18:04:49.556Z,1.60
2023-04-09T18:07:02.486Z,1.60
2023-04-09T18:09:17.063Z,1.80
2023-04-09T18:11:30.684Z,1.80
2023-04-09T18:13:43.288Z,1.70
2023-04-09T18:15:56.265Z,1.70
2023-04-09T18:18:09.167Z,1.60
2023-04-09T18:20:21.813Z,1.70
2023-04-09T18:22:36.286Z,1.80
2023-04-09T18:24:49.759Z,2.20
2023-04-09T18:27:03.349Z,1.70
2023-04-09T18:29:15.852Z,2.10
2023-04-09T18:31:28.797Z,1.70
2023-04-09T18:33:41.676Z,1.50
2023-04-09T18:35:54.383Z,1.20
2023-04-09T18:38:07.266Z,1.60
2023-04-09T18:40:21.338Z,1.20
2023-04-09T18:42:33.978Z,1.70
2023-04-09T18:44:46.949Z,2.00
2023-04-09T18:47:00.785Z,1.70
2023-04-09T18:49:13.438Z,1.80
2023-04-09T18:51:26.378Z,1.60
2023-04-09T18:53:39.124Z,1.60
2023-04-09T18:55:52.009Z,1.90
2023-04-09T18:58:06.382Z,1.80
2023-04-09T19:00:20.002Z,2.30
2023-04-09T19:02:33.012Z,2.20
2023-04-09T19:04:46.269Z,2.40
2023-04-09T19:06:59.228Z,1.80
2023-04-09T19:09:11.884Z,2.10
2023-04-09T19:11:24.942Z,2.20
2023-04-09T19:13:37.673Z,1.90
2023-04-09T19:15:50.664Z,2.10
2023-04-09T19:18:03.574Z,1.80
2023-04-09T19:20:17.360Z,2.20
2023-04-09T19:22:30.076Z,1.80
2023-04-09T19:24:42.676Z,2.10
2023-04-09T19:26:55.766Z,1.20
2023-04-09T19:29:08.792Z,2.30
2023-04-09T19:31:21.449Z,2.40
2023-04-09T19:33:35.385Z,2.30
2023-04-09T19:35:48.401Z,1.60
2023-04-09T19:38:04.166Z,2.60
2023-04-09T19:40:19.332Z,2.40
2023-04-09T19:42:32.896Z,2.10
2023-04-09T19:44:45.874Z,2.10
2023-04-09T19:46:58.751Z,2.30
2023-04-09T19:49:11.937Z,2.40
2023-04-09T19:51:25.527Z,2.40
2023-04-09T19:53:38.876Z,2.30
2023-04-09T19:55:51.633Z,2.20
2023-04-09T19:58:05.117Z,2.80
2023-04-09T20:00:18.836Z,2.50
2023-04-09T20:02:32.901Z,2.50
2023-04-09T20:04:46.229Z,1.70
2023-04-09T20:06:58.881Z,2.10
2023-04-09T20:09:13.544Z,2.30
2023-04-09T20:11:27.194Z,2.50
2023-04-09T20:13:39.837Z,1.60
2023-04-09T20:15:52.816Z,1.80
2023-04-09T20:18:05.438Z,1.70
2023-04-09T20:20:21.046Z,1.90
2023-04-09T20:22:33.738Z,1.90
2023-04-09T20:24:46.368Z,2.30
2023-04-09T20:27:00.838Z,2.10
2023-04-09T20:29:13.927Z,1.70
2023-04-09T20:31:27.879Z,2.10
2023-04-09T20:33:41.086Z,1.60
2023-04-09T20:35:54.307Z,2.00
2023-04-09T20:38:07.021Z,2.10
2023-04-09T20:40:19.988Z,1.90
2023-04-09T20:42:32.864Z,2.20
2023-04-09T20:44:46.170Z,1.90
2023-04-09T20:46:59.229Z,1.50
2023-04-09T20:49:12.073Z,2.40
2023-04-09T20:51:24.657Z,2.00
2023-04-09T20:53:37.521Z,1.50
2023-04-09T20:55:50.273Z,1.30
2023-04-09T20:58:03.946Z,1.70
2023-04-09T21:00:19.109Z,1.70
2023-04-09T21:02:32.099Z,1.00
2023-04-09T21:04:45.008Z,1.70
2023-04-09T21:06:57.749Z,1.70
2023-04-09T21:09:11.370Z,1.70
2023-04-09T21:11:24.088Z,1.40
2023-04-09T21:13:53.222Z,1.50
2023-04-09T21:16:07.920Z,1.50
2023-04-09T21:18:20.711Z,1.50
2023-04-09T21:20:33.587Z,1.30
2023-04-09T21:22:46.240Z,1.60
2023-04-09T21:24:59.570Z,1.40
2023-04-09T21:27:12.261Z,1.70
2023-04-09T21:29:25.898Z,1.50
2023-04-09T21:31:39.841Z,1.40
2023-04-09T21:33:53.495Z,1.60
2023-04-09T21:36:08.449Z,1.70
2023-04-09T21:38:21.336Z,1.20
2023-04-09T21:40:34.660Z,1.60
2023-04-09T21:42:47.827Z,1.40
2023-04-09T21:45:00.803Z,1.20
2023-04-09T21:47:15.293Z,1.50
2023-04-09T21:49:28.446Z,1.40
2023-04-09T21:51:41.501Z,1.20
2023-04-09T21:53:54.378Z,1.30
2023-04-09T21:56:07.136Z,1.20
2023-04-09T21:58:20.170Z,1.40
2023-04-09T22:00:33.404Z,1.30
2023-04-09T22:02:47.266Z,1.30
2023-04-09T22:05:02.318Z,1.10
2023-04-09T22:07:15.709Z,1.10
2023-04-09T22:09:28.255Z,1.30
2023-04-09T22:11:42.566Z,1.30
2023-04-09T22:13:55.468Z,1.40
2023-04-09T22:16:09.866Z,1.70
2023-04-09T22:18:22.712Z,1.60
2023-04-09T22:20:36.176Z,1.30
2023-04-09T22:22:49.414Z,1.60
2023-04-09T22:25:02.134Z,1.40
2023-04-09T22:27:14.951Z,1.40
2023-04-09T22:29:27.709Z,1.10
2023-04-09T22:31:41.979Z,1.40
2023-04-09T22:33:55.122Z,1.10
2023-04-09T22:36:08.939Z,1.50
2023-04-09T22:38:21.790Z,1.10
2023-04-09T22:40:35.029Z,1.10
2023-04-09T22:42:49.768Z,1.30
2023-04-09T22:45:03.890Z,1.10
2023-04-09T22:47:17.100Z,1.20
2023-04-09T22:49:30.346Z,0.90
2023-04-09T22:51:43.790Z,1.20
2023-04-09T22:53:57.750Z,1.60
2023-04-09T22:56:11.919Z,1.60
2023-04-09T22:58:25.205Z,1.70
2023-04-09T23:00:38.678Z,1.20
2023-04-09T23:02:52.068Z,1.20
2023-04-09T23:05:05.392Z,1.30
2023-04-09T23:07:18.000Z,1.30
2023-04-09T23:09:31.662Z,1.80
2023-04-09T23:11:44.948Z,1.40
2023-04-09T23:13:57.585Z,1.40
2023-04-09T23:16:13.810Z,1.70
2023-04-09T23:18:26.614Z,1.70
2023-04-09T23:20:39.591Z,1.90
2023-04-09T23:22:54.106Z,1.40
2023-04-09T23:25:07.253Z,1.80
2023-04-09T23:27:19.952Z,1.30
2023-04-09T23:29:35.184Z,1.40
2023-04-09T23:31:49.154Z,1.70
2023-04-09T23:34:02.853Z,1.40
2023-04-09T23:36:16.528Z,1.60
2023-04-09T23:38:29.441Z,1.20
2023-04-09T23:40:42.321Z,1.20
2023-04-09T23:42:55.800Z,1.10
2023-04-09T23:45:11.856Z,1.30
2023-04-09T23:47:25.287Z,1.60
2023-04-09T23:49:38.325Z,2.20
2023-04-09T23:51:51.509Z,1.80
2023-04-09T23:54:04.992Z,1.40
2023-04-09T23:56:18.730Z,1.60
2023-04-09T23:58:31.678Z,1.20
